Monte Alto, Texas
Current Conditions -  °F | °C
As of 11:55 AM on Friday 28 Nov 2014 (Local Time) from KT65 Reporting Station
Scattered Clouds Scattered Clouds  
Wind Chill: 24°   Ceiling: Unl
Heat Index: 24°   Visibility: 10mi
Dew Point: 13°   Wind: 17mph
Humidity: 52%   Direction: 180°S
Pressure: 30.26"   Gusts: 22mph
Location:  26.3131°N, 97.9381°W
Report Text: KT65 281755Z AUTO 18015G19KT 10SM SCT037 24/13 A3026 RMK AO2 T02370133 10238 20111
Loading
Personal Weather Stations






























Interactive Weather Map New forecast layout! Learn more

10-Day Weather Forecast

Advertisements
Track Severe Weather on mobile